Time;durP1;ratioP1;P1;durP2;ratioP2;P2;SDS_P1;SDS_P2;PMS_P1;PMS_P2;Temp;Humidity;BMP_temperature;BMP_pressure;BME280_temperature;BME280_humidity;BME280_pressure;Samples;Min_cycle;Max_cycle;Signal;HPM_P1;HPM_P2
2022/05/01 00:01:13;;;;;;;3.27;1.70;;;;;;;;;;4400231;29;20037;-68
2022/05/01 00:03:34;;;;;;;3.13;2.10;;;;;;;;;;4402846;28;20112;-68
2022/05/01 00:05:44;;;;;;;3.83;2.00;;;;;;;;;;4402863;28;20032;-69
2022/05/01 00:07:54;;;;;;;4.30;2.00;;;;;;;;;;4403127;29;20429;-68
2022/05/01 00:10:06;;;;;;;2.30;1.77;;;;;;;;;;4401115;28;20051;-68
2022/05/01 00:12:17;;;;;;;2.92;2.00;;;;;;;;;;4401895;29;20041;-68
2022/05/01 00:14:28;;;;;;;2.67;1.80;;;;;;;;;;4401120;28;20104;-68
2022/05/01 00:16:40;;;;;;;2.22;1.80;;;;;;;;;;4402345;29;20040;-68
2022/05/01 00:18:50;;;;;;;2.63;1.70;;;;;;;;;;4402964;29;20426;-69
2022/05/01 00:21:01;;;;;;;3.30;1.93;;;;;;;;;;4404583;29;20908;-68
2022/05/01 00:23:12;;;;;;;2.97;1.80;;;;;;;;;;4400576;29;20149;-68
2022/05/01 00:25:22;;;;;;;2.80;1.63;;;;;;;;;;4405765;29;20045;-68
2022/05/01 00:27:33;;;;;;;3.13;2.00;;;;;;;;;;4406146;29;20978;-69
2022/05/01 00:29:44;;;;;;;2.25;1.80;;;;;;;;;;4405060;29;20102;-68
2022/05/01 00:31:54;;;;;;;2.47;1.80;;;;;;;;;;4406015;29;20044;-69
2022/05/01 00:36:34;;;;;;;3.42;2.20;;;;;;;;;;4405936;29;20047;-68
2022/05/01 00:38:44;;;;;;;2.60;1.80;;;;;;;;;;4406432;29;20047;-71
2022/05/01 00:40:55;;;;;;;3.03;1.90;;;;;;;;;;4406521;28;20043;-70
2022/05/01 00:43:05;;;;;;;2.40;1.97;;;;;;;;;;4404317;28;35011;-70
2022/05/01 00:45:16;;;;;;;3.63;2.30;;;;;;;;;;4398286;29;20557;-71
2022/05/01 00:47:27;;;;;;;3.42;1.92;;;;;;;;;;4390694;29;20041;-70
2022/05/01 00:49:37;;;;;;;3.73;2.03;;;;;;;;;;4419374;28;20048;-71
2022/05/01 00:51:53;;;;;;;3.77;1.93;;;;;;;;;;4408663;29;20505;-68
2022/05/01 00:54:07;;;;;;;2.38;1.55;;;;;;;;;;4398091;29;20032;-67
2022/05/01 00:56:18;;;;;;;2.05;1.70;;;;;;;;;;4407335;29;20064;-68
2022/05/01 00:58:29;;;;;;;3.22;1.88;;;;;;;;;;4412019;29;20037;-69
2022/05/01 01:00:40;;;;;;;3.45;2.13;;;;;;;;;;4406457;29;20557;-69
2022/05/01 01:02:50;;;;;;;2.20;1.80;;;;;;;;;;4405875;29;33960;-69
2022/05/01 01:05:00;;;;;;;3.13;1.97;;;;;;;;;;4403087;29;20548;-69
2022/05/01 01:07:11;;;;;;;2.20;1.80;;;;;;;;;;4403841;29;20502;-69
2022/05/01 01:09:21;;;;;;;2.67;1.83;;;;;;;;;;4404232;29;22317;-69
2022/05/01 01:11:32;;;;;;;2.77;1.60;;;;;;;;;;4404416;29;20056;-68
2022/05/01 01:13:46;;;;;;;2.40;1.88;;;;;;;;;;4405127;29;20055;-69
2022/05/01 01:15:57;;;;;;;2.13;1.77;;;;;;;;;;4402843;29;20029;-68
2022/05/01 01:18:08;;;;;;;2.63;1.83;;;;;;;;;;4404831;29;42173;-68
2022/05/01 01:20:18;;;;;;;3.50;2.07;;;;;;;;;;4404783;29;20075;-69
2022/05/01 01:22:29;;;;;;;2.53;1.70;;;;;;;;;;4403843;29;20041;-69
2022/05/01 01:24:42;;;;;;;2.60;1.90;;;;;;;;;;4404829;29;20097;-68
2022/05/01 01:26:53;;;;;;;3.63;2.00;;;;;;;;;;4405356;29;20447;-69
2022/05/01 01:31:40;;;;;;;2.23;1.80;;;;;;;;;;4404444;28;20028;-69
2022/05/01 01:31:41;;;;;;;3.45;1.90;;;;;;;;;;4404971;29;20468;-69
2022/05/01 01:33:53;;;;;;;2.95;1.60;;;;;;;;;;4410090;29;20088;-69
2022/05/01 01:36:04;;;;;;;2.50;1.95;;;;;;;;;;4405926;29;20091;-69
2022/05/01 01:38:16;;;;;;;3.08;1.63;;;;;;;;;;4404630;29;20037;-69
2022/05/01 01:40:49;;;;;;;2.95;1.70;;;;;;;;;;4404969;29;20037;-69
2022/05/01 01:43:01;;;;;;;3.63;2.00;;;;;;;;;;4412470;29;20043;-68
2022/05/01 01:45:13;;;;;;;3.17;2.08;;;;;;;;;;4405420;29;20083;-68
2022/05/01 01:47:23;;;;;;;3.08;1.90;;;;;;;;;;4412786;29;20801;-69
2022/05/01 01:49:34;;;;;;;2.73;1.90;;;;;;;;;;4405968;28;27822;-69
2022/05/01 01:51:44;;;;;;;2.87;1.90;;;;;;;;;;4406669;29;20040;-69
2022/05/01 01:53:55;;;;;;;2.20;1.80;;;;;;;;;;4406553;28;22103;-69
2022/05/01 01:56:08;;;;;;;2.67;2.00;;;;;;;;;;4403960;28;20036;-69
2022/05/01 01:58:19;;;;;;;2.70;2.05;;;;;;;;;;4403263;29;20047;-69
2022/05/01 02:00:30;;;;;;;4.10;2.07;;;;;;;;;;4403960;29;20039;-69
2022/05/01 02:02:40;;;;;;;2.83;1.87;;;;;;;;;;4404105;28;20032;-69
2022/05/01 02:04:51;;;;;;;3.53;2.27;;;;;;;;;;4405230;29;20113;-69
2022/05/01 02:07:01;;;;;;;2.90;1.90;;;;;;;;;;4404758;28;20096;-69
2022/05/01 02:09:12;;;;;;;2.37;1.80;;;;;;;;;;4411676;29;20127;-69
2022/05/01 02:11:22;;;;;;;2.20;1.80;;;;;;;;;;4403828;28;20036;-69
2022/05/01 02:13:33;;;;;;;2.80;1.90;;;;;;;;;;4410178;29;27794;-69
2022/05/01 02:15:44;;;;;;;2.97;1.77;;;;;;;;;;4405198;29;20083;-68
2022/05/01 02:17:55;;;;;;;2.90;1.80;;;;;;;;;;4391334;29;20120;-68
2022/05/01 02:20:06;;;;;;;3.47;2.00;;;;;;;;;;4404047;28;20096;-69
2022/05/01 02:22:17;;;;;;;3.28;1.88;;;;;;;;;;4404768;29;20052;-70
2022/05/01 02:24:30;;;;;;;2.53;1.80;;;;;;;;;;4404263;28;20442;-69
2022/05/01 02:26:41;;;;;;;2.70;1.90;;;;;;;;;;4403091;29;20088;-69
2022/05/01 02:28:51;;;;;;;2.47;2.00;;;;;;;;;;4403521;29;20036;-69
2022/05/01 02:31:02;;;;;;;2.37;2.10;;;;;;;;;;4404372;29;20056;-69
2022/05/01 02:33:12;;;;;;;2.93;2.03;;;;;;;;;;4404211;29;20063;-69
2022/05/01 02:35:23;;;;;;;2.00;1.70;;;;;;;;;;4404881;29;20048;-69
2022/05/01 02:37:33;;;;;;;2.03;1.77;;;;;;;;;;4404888;29;20067;-69
2022/05/01 02:39:44;;;;;;;2.20;2.00;;;;;;;;;;4403185;29;20040;-69
2022/05/01 02:41:56;;;;;;;2.73;1.87;;;;;;;;;;4404168;29;20042;-69
2022/05/01 02:44:06;;;;;;;2.90;2.17;;;;;;;;;;4402701;29;20028;-68
2022/05/01 02:46:17;;;;;;;2.70;2.20;;;;;;;;;;4403744;29;20040;-68
2022/05/01 02:48:27;;;;;;;3.33;1.93;;;;;;;;;;4410347;28;20032;-69
2022/05/01 02:50:37;;;;;;;2.80;1.67;;;;;;;;;;4403123;29;26994;-69
2022/05/01 02:52:51;;;;;;;3.03;1.97;;;;;;;;;;4404659;28;20079;-69
2022/05/01 02:55:01;;;;;;;3.63;2.30;;;;;;;;;;4404081;29;20036;-69
2022/05/01 02:57:13;;;;;;;3.93;2.13;;;;;;;;;;4403573;29;20043;-69
2022/05/01 02:59:24;;;;;;;3.05;2.10;;;;;;;;;;4404502;28;20036;-70
2022/05/01 03:01:34;;;;;;;2.47;2.00;;;;;;;;;;4403028;29;20235;-68
2022/05/01 03:03:44;;;;;;;2.70;1.90;;;;;;;;;;4402485;29;20490;-69
2022/05/01 03:05:57;;;;;;;2.90;2.07;;;;;;;;;;4404971;29;20036;-69
2022/05/01 03:08:07;;;;;;;3.55;2.03;;;;;;;;;;4404887;29;20124;-69
2022/05/01 03:10:17;;;;;;;2.67;2.13;;;;;;;;;;4405569;29;20040;-69
2022/05/01 03:12:29;;;;;;;3.80;1.93;;;;;;;;;;4404310;29;20028;-69
2022/05/01 03:14:39;;;;;;;3.75;2.10;;;;;;;;;;4402902;29;20564;-68
2022/05/01 03:16:50;;;;;;;3.43;2.20;;;;;;;;;;4407700;28;20062;-69
2022/05/01 03:24:00;;;;;;;2.72;2.00;;;;;;;;;;4404545;29;20037;-69
2022/05/01 03:26:10;;;;;;;3.73;2.03;;;;;;;;;;4402975;29;28040;-67
2022/05/01 03:28:20;;;;;;;3.10;1.90;;;;;;;;;;4404027;29;20143;-69
2022/05/01 03:30:31;;;;;;;2.33;2.10;;;;;;;;;;4404628;29;39025;-69
2022/05/01 03:32:43;;;;;;;2.50;2.00;;;;;;;;;;4403258;28;20366;-69
2022/05/01 03:34:53;;;;;;;3.00;1.90;;;;;;;;;;4403770;29;20525;-69
2022/05/01 03:37:07;;;;;;;2.50;1.80;;;;;;;;;;4402742;29;20108;-69
2022/05/01 03:39:18;;;;;;;2.25;1.77;;;;;;;;;;4402814;28;20910;-69
2022/05/01 03:41:28;;;;;;;3.43;1.90;;;;;;;;;;4400857;28;20028;-69
2022/05/01 03:43:38;;;;;;;2.60;2.00;;;;;;;;;;4403696;29;20043;-69
2022/05/01 03:45:49;;;;;;;3.63;2.20;;;;;;;;;;4404165;29;20047;-69
2022/05/01 03:47:59;;;;;;;2.00;1.73;;;;;;;;;;4403207;29;39644;-69
2022/05/01 03:50:10;;;;;;;2.63;1.90;;;;;;;;;;4401886;29;20053;-69
2022/05/01 03:52:20;;;;;;;3.83;2.20;;;;;;;;;;4401811;29;26688;-71
2022/05/01 03:54:30;;;;;;;2.70;2.03;;;;;;;;;;4406190;28;20038;-69
2022/05/01 03:56:41;;;;;;;1.97;1.77;;;;;;;;;;4401984;28;20592;-69
2022/05/01 03:58:51;;;;;;;2.53;2.10;;;;;;;;;;4403160;29;20040;-69
2022/05/01 04:01:02;;;;;;;2.10;1.80;;;;;;;;;;4402429;29;20132;-69
2022/05/01 04:03:12;;;;;;;4.60;2.20;;;;;;;;;;4404604;29;20513;-69
2022/05/01 04:05:22;;;;;;;2.20;2.00;;;;;;;;;;4403925;29;22003;-69
2022/05/01 04:07:33;;;;;;;2.47;2.00;;;;;;;;;;4402889;29;22688;-69
2022/05/01 04:09:43;;;;;;;2.70;2.10;;;;;;;;;;4399882;29;20168;-68
2022/05/01 04:11:54;;;;;;;2.83;2.10;;;;;;;;;;4402178;28;20720;-69
2022/05/01 04:14:06;;;;;;;2.27;2.00;;;;;;;;;;4399707;29;41328;-69
2022/05/01 04:16:16;;;;;;;3.13;2.15;;;;;;;;;;4402193;29;20124;-69
2022/05/01 04:18:27;;;;;;;3.33;2.13;;;;;;;;;;4402340;29;20045;-68
2022/05/01 04:20:38;;;;;;;3.73;2.10;;;;;;;;;;4401857;29;20048;-69
2022/05/01 04:22:49;;;;;;;3.33;2.20;;;;;;;;;;4409759;29;21029;-69
2022/05/01 04:24:59;;;;;;;2.37;2.00;;;;;;;;;;4402412;29;20075;-68
2022/05/01 04:27:10;;;;;;;2.83;2.10;;;;;;;;;;4402724;29;20033;-68
2022/05/01 04:29:40;;;;;;;2.80;2.07;;;;;;;;;;4399385;29;45490;-68
2022/05/01 04:31:50;;;;;;;2.75;2.08;;;;;;;;;;4403399;29;20116;-68
2022/05/01 04:34:01;;;;;;;2.80;1.70;;;;;;;;;;4402183;29;21419;-68
2022/05/01 04:36:11;;;;;;;2.37;1.83;;;;;;;;;;4401808;29;20044;-68
2022/05/01 04:38:23;;;;;;;3.07;2.07;;;;;;;;;;4402180;29;20045;-68
2022/05/01 04:40:39;;;;;;;2.97;2.28;;;;;;;;;;4409209;29;20316;-68
2022/05/01 04:42:49;;;;;;;2.75;1.90;;;;;;;;;;4389518;29;20080;-69
2022/05/01 04:45:00;;;;;;;3.77;2.20;;;;;;;;;;4402311;28;20123;-69
2022/05/01 04:47:11;;;;;;;2.78;2.13;;;;;;;;;;4401299;28;20032;-68
2022/05/01 04:49:22;;;;;;;3.07;2.00;;;;;;;;;;4402632;29;20068;-68
2022/05/01 04:51:32;;;;;;;2.95;2.05;;;;;;;;;;4401192;29;20083;-69
2022/05/01 04:53:43;;;;;;;2.50;2.10;;;;;;;;;;4401814;29;20046;-68
2022/05/01 04:55:53;;;;;;;2.50;2.20;;;;;;;;;;4400935;29;25764;-68
2022/05/01 04:58:04;;;;;;;4.57;2.23;;;;;;;;;;4402016;28;20751;-68
2022/05/01 05:00:15;;;;;;;3.30;2.17;;;;;;;;;;4399612;29;20678;-69
2022/05/01 05:02:34;;;;;;;3.10;2.30;;;;;;;;;;4402300;29;20874;-68
2022/05/01 05:04:44;;;;;;;2.47;2.03;;;;;;;;;;4414737;28;20289;-68
2022/05/01 05:06:55;;;;;;;3.33;2.03;;;;;;;;;;4401080;29;20088;-69
2022/05/01 05:11:34;;;;;;;3.75;2.00;;;;;;;;;;4402187;28;20055;-68
2022/05/01 05:13:44;;;;;;;3.00;1.93;;;;;;;;;;4404206;28;44806;-68
2022/05/01 05:15:59;;;;;;;2.37;1.90;;;;;;;;;;4403192;28;20075;-68
2022/05/01 05:18:09;;;;;;;3.17;1.98;;;;;;;;;;4402186;29;20024;-69
2022/05/01 05:20:20;;;;;;;3.13;2.03;;;;;;;;;;4403025;29;20486;-68
2022/05/01 05:22:30;;;;;;;2.57;1.97;;;;;;;;;;4401277;29;27023;-69
2022/05/01 05:24:41;;;;;;;3.57;1.93;;;;;;;;;;4403354;29;20037;-68
2022/05/01 05:26:51;;;;;;;3.33;2.13;;;;;;;;;;4403006;29;20478;-69
2022/05/01 05:29:03;;;;;;;5.33;2.23;;;;;;;;;;4403978;29;20674;-68
2022/05/01 05:31:14;;;;;;;3.40;2.30;;;;;;;;;;4403522;29;20101;-68
2022/05/01 05:33:24;;;;;;;3.60;2.30;;;;;;;;;;4404101;29;20055;-68
2022/05/01 05:35:36;;;;;;;2.45;2.15;;;;;;;;;;4403490;28;20599;-68
2022/05/01 05:37:46;;;;;;;3.30;2.00;;;;;;;;;;4403589;29;20036;-69
2022/05/01 05:39:56;;;;;;;3.50;2.10;;;;;;;;;;4404298;29;20585;-69
2022/05/01 05:42:07;;;;;;;3.40;2.00;;;;;;;;;;4405632;29;20482;-68
2022/05/01 05:44:18;;;;;;;3.13;2.20;;;;;;;;;;4403882;29;20148;-68
2022/05/01 05:46:28;;;;;;;4.13;2.43;;;;;;;;;;4405489;29;29375;-68
2022/05/01 05:48:39;;;;;;;3.23;2.20;;;;;;;;;;4404524;28;20063;-69
2022/05/01 05:50:49;;;;;;;2.53;2.07;;;;;;;;;;4403542;29;20493;-68
2022/05/01 05:52:59;;;;;;;3.47;2.30;;;;;;;;;;4401907;29;20039;-68
2022/05/01 05:55:10;;;;;;;3.07;2.20;;;;;;;;;;4402181;29;20071;-68
2022/05/01 05:57:20;;;;;;;3.17;2.10;;;;;;;;;;4404458;29;20576;-68
2022/05/01 05:59:31;;;;;;;2.60;2.10;;;;;;;;;;4404682;29;20055;-68
2022/05/01 06:01:42;;;;;;;2.60;2.30;;;;;;;;;;4405202;29;20175;-68
2022/05/01 06:03:52;;;;;;;2.58;2.00;;;;;;;;;;4402909;29;20223;-68
2022/05/01 06:06:03;;;;;;;2.60;2.13;;;;;;;;;;4403221;29;20039;-69
2022/05/01 06:08:15;;;;;;;2.88;1.98;;;;;;;;;;4406017;28;20041;-69
2022/05/01 06:10:25;;;;;;;;;;;;;;;;;;4404544;28;20052;-68
2022/05/01 06:12:42;;;;;;;2.72;2.10;;;;;;;;;;4402856;29;19930;-68
2022/05/01 06:14:53;;;;;;;2.85;2.20;;;;;;;;;;4404510;29;20256;-68
2022/05/01 06:17:03;;;;;;;3.20;2.00;;;;;;;;;;4403173;29;20036;-69
2022/05/01 06:19:15;;;;;;;3.80;2.33;;;;;;;;;;4386619;29;20068;-68
2022/05/01 06:21:26;;;;;;;3.42;2.20;;;;;;;;;;4402980;28;20079;-68
2022/05/01 06:23:36;;;;;;;3.80;2.10;;;;;;;;;;4401283;28;20032;-70
2022/05/01 06:25:47;;;;;;;3.33;2.23;;;;;;;;;;4405426;29;20041;-70
2022/05/01 06:27:57;;;;;;;2.77;2.10;;;;;;;;;;4403386;29;20036;-70
2022/05/01 06:30:11;;;;;;;4.57;2.57;;;;;;;;;;4405225;29;20055;-69
2022/05/01 06:32:22;;;;;;;2.75;2.22;;;;;;;;;;4400927;29;20044;-70
2022/05/01 06:34:33;;;;;;;4.10;2.10;;;;;;;;;;4404879;29;20036;-69
2022/05/01 06:36:43;;;;;;;3.90;2.05;;;;;;;;;;4404405;29;20045;-69
2022/05/01 06:38:54;;;;;;;2.80;2.27;;;;;;;;;;4403653;29;20036;-69
2022/05/01 06:41:04;;;;;;;3.17;2.20;;;;;;;;;;4403537;29;20044;-69
2022/05/01 06:43:17;;;;;;;3.25;2.22;;;;;;;;;;4403836;29;20032;-70
2022/05/01 06:45:28;;;;;;;3.75;2.15;;;;;;;;;;4404582;29;20040;-69
2022/05/01 06:47:38;;;;;;;2.50;1.90;;;;;;;;;;4402943;29;34909;-70
2022/05/01 06:49:49;;;;;;;3.77;2.03;;;;;;;;;;4402710;29;31692;-70
2022/05/01 06:51:59;;;;;;;2.80;2.10;;;;;;;;;;4417826;28;37803;-69
2022/05/01 06:54:10;;;;;;;2.33;2.00;;;;;;;;;;4403228;29;20065;-69
2022/05/01 06:56:20;;;;;;;3.30;2.20;;;;;;;;;;4403399;29;20032;-69
2022/05/01 06:58:31;;;;;;;2.80;2.37;;;;;;;;;;4403826;29;20043;-69
2022/05/01 07:00:43;;;;;;;3.25;2.40;;;;;;;;;;4402719;29;20044;-69
2022/05/01 07:02:53;;;;;;;;;;;;;;;;;;4404848;29;21183;-69
2022/05/01 07:05:04;;;;;;;3.13;2.42;;;;;;;;;;4418958;28;20016;-69
2022/05/01 07:07:15;;;;;;;3.58;2.58;;;;;;;;;;4405069;29;20055;-69
2022/05/01 07:09:25;;;;;;;3.03;2.30;;;;;;;;;;4403020;29;20044;-69
2022/05/01 07:11:36;;;;;;;2.77;1.90;;;;;;;;;;4403137;29;20059;-69
2022/05/01 07:13:46;;;;;;;2.67;2.20;;;;;;;;;;4404285;29;31329;-69
2022/05/01 07:15:56;;;;;;;2.33;1.90;;;;;;;;;;4411028;29;20297;-69
2022/05/01 07:18:07;;;;;;;3.90;2.10;;;;;;;;;;4402789;29;20044;-69
2022/05/01 07:20:17;;;;;;;2.80;1.87;;;;;;;;;;4401960;29;20040;-69
2022/05/01 07:22:28;;;;;;;3.50;2.37;;;;;;;;;;4401609;29;30441;-68
2022/05/01 07:24:39;;;;;;;2.80;2.03;;;;;;;;;;4404323;29;20045;-68
2022/05/01 07:26:49;;;;;;;2.70;2.10;;;;;;;;;;4403613;29;20040;-70
2022/05/01 07:29:00;;;;;;;2.33;2.10;;;;;;;;;;4404244;29;20419;-69
2022/05/01 07:31:11;;;;;;;3.88;2.40;;;;;;;;;;4403877;29;20063;-69
2022/05/01 07:33:22;;;;;;;3.13;2.30;;;;;;;;;;4405738;28;23808;-69
2022/05/01 07:35:32;;;;;;;2.10;1.90;;;;;;;;;;4403653;29;20065;-69
2022/05/01 07:37:43;;;;;;;3.10;1.90;;;;;;;;;;4403484;29;20120;-69
2022/05/01 07:39:54;;;;;;;3.07;1.90;;;;;;;;;;4402955;29;20040;-69
2022/05/01 07:42:04;;;;;;;3.83;2.40;;;;;;;;;;4401815;29;20072;-68
2022/05/01 07:44:15;;;;;;;2.97;2.10;;;;;;;;;;4403585;29;20456;-67
2022/05/01 07:46:25;;;;;;;3.70;2.23;;;;;;;;;;4401699;28;20120;-72
2022/05/01 07:48:36;;;;;;;3.07;2.00;;;;;;;;;;4402013;29;36007;-66
2022/05/01 07:50:46;;;;;;;3.70;2.23;;;;;;;;;;4403395;29;20259;-67
2022/05/01 07:52:57;;;;;;;2.70;2.17;;;;;;;;;;4401909;29;20296;-64
2022/05/01 07:55:07;;;;;;;2.27;1.53;;;;;;;;;;4416599;28;20051;-69
2022/05/01 07:57:18;;;;;;;3.03;2.10;;;;;;;;;;4402799;29;20029;-69
2022/05/01 07:59:29;;;;;;;2.90;2.00;;;;;;;;;;4404252;29;20063;-69
2022/05/01 08:01:39;;;;;;;3.03;2.30;;;;;;;;;;4403025;29;20413;-68
2022/05/01 08:06:21;;;;;;;3.58;2.00;;;;;;;;;;4403491;29;20076;-69
2022/05/01 08:08:33;;;;;;;2.70;1.92;;;;;;;;;;4403059;29;20647;-69
2022/05/01 08:10:43;;;;;;;3.47;1.98;;;;;;;;;;4401014;29;20055;-69
2022/05/01 08:12:56;;;;;;;3.20;2.07;;;;;;;;;;4400382;29;20052;-69
2022/05/01 08:15:08;;;;;;;3.35;2.00;;;;;;;;;;4401727;28;20508;-69
2022/05/01 08:17:18;;;;;;;2.42;1.77;;;;;;;;;;4400629;29;20098;-69
2022/05/01 08:21:58;;;;;;;2.55;2.30;;;;;;;;;;4400571;29;20614;-69
2022/05/01 08:24:09;;;;;;;3.90;2.13;;;;;;;;;;4401794;29;20040;-69
2022/05/01 08:26:21;;;;;;;2.77;2.20;;;;;;;;;;4410567;28;20133;-68
2022/05/01 08:28:32;;;;;;;2.97;2.00;;;;;;;;;;4403064;29;20064;-68
2022/05/01 08:30:42;;;;;;;2.95;2.13;;;;;;;;;;4402082;29;20562;-69
2022/05/01 08:32:53;;;;;;;2.87;2.00;;;;;;;;;;4402190;29;20186;-68
2022/05/01 08:35:04;;;;;;;3.57;2.20;;;;;;;;;;4401953;29;20037;-68
2022/05/01 08:37:14;;;;;;;2.67;1.83;;;;;;;;;;4400499;29;20036;-68
2022/05/01 08:39:25;;;;;;;2.57;1.53;;;;;;;;;;4403237;29;20036;-68
2022/05/01 08:41:35;;;;;;;2.07;1.70;;;;;;;;;;4402889;29;20795;-68
2022/05/01 08:43:46;;;;;;;2.57;1.80;;;;;;;;;;4393603;29;20047;-68
2022/05/01 08:46:18;;;;;;;3.10;1.97;;;;;;;;;;4404112;29;20413;-68
2022/05/01 08:48:36;;;;;;;3.20;1.90;;;;;;;;;;4406365;29;20040;-68
2022/05/01 08:50:47;;;;;;;3.15;1.90;;;;;;;;;;4405415;29;20124;-68
2022/05/01 08:52:59;;;;;;;3.28;2.13;;;;;;;;;;4405417;29;20161;-69
2022/05/01 08:55:10;;;;;;;3.58;1.90;;;;;;;;;;4396393;29;20056;-69
2022/05/01 08:57:21;;;;;;;2.40;1.90;;;;;;;;;;4403551;29;43740;-68
2022/05/01 08:59:32;;;;;;;3.13;2.00;;;;;;;;;;4406006;28;20036;-69
2022/05/01 09:01:44;;;;;;;3.17;2.00;;;;;;;;;;4402947;29;20123;-68
2022/05/01 09:03:54;;;;;;;2.25;1.80;;;;;;;;;;4406269;29;20576;-68
2022/05/01 09:06:05;;;;;;;2.83;1.60;;;;;;;;;;4404671;29;34487;-69
2022/05/01 09:08:16;;;;;;;2.67;1.80;;;;;;;;;;4403355;29;20124;-69
2022/05/01 09:10:30;;;;;;;2.17;1.73;;;;;;;;;;4403165;29;20146;-69
2022/05/01 09:12:49;;;;;;;2.15;1.60;;;;;;;;;;4412219;29;20032;-69
2022/05/01 09:15:03;;;;;;;2.28;1.63;;;;;;;;;;4413665;29;21505;-69
2022/05/01 09:17:17;;;;;;;3.05;1.63;;;;;;;;;;4406135;29;20025;-69
2022/05/01 09:19:30;;;;;;;2.30;1.55;;;;;;;;;;4403367;29;20764;-69
2022/05/01 09:21:49;;;;;;;2.65;1.35;;;;;;;;;;4403989;29;20069;-69
2022/05/01 09:24:05;;;;;;;2.67;1.70;;;;;;;;;;4406501;29;20092;-70
2022/05/01 09:26:17;;;;;;;3.38;1.90;;;;;;;;;;4404812;29;20652;-69
2022/05/01 09:28:28;;;;;;;3.55;1.83;;;;;;;;;;4405960;29;20288;-69
2022/05/01 09:30:39;;;;;;;2.67;1.40;;;;;;;;;;4403977;29;20767;-69
2022/05/01 09:32:49;;;;;;;2.30;1.70;;;;;;;;;;4406756;29;20044;-70
2022/05/01 09:35:00;;;;;;;3.30;1.77;;;;;;;;;;4405946;29;20043;-69
2022/05/01 09:37:18;;;;;;;2.00;1.60;;;;;;;;;;4403593;29;20042;-69
2022/05/01 09:39:32;;;;;;;1.92;1.60;;;;;;;;;;4401537;29;20036;-69
2022/05/01 09:41:42;;;;;;;2.00;1.60;;;;;;;;;;4412046;29;20067;-70
2022/05/01 09:43:53;;;;;;;1.50;1.40;;;;;;;;;;4405455;28;20132;-70
2022/05/01 09:46:20;;;;;;;1.90;1.40;;;;;;;;;;4389920;29;20039;-70
2022/05/01 09:48:31;;;;;;;3.25;1.40;;;;;;;;;;4406991;28;20653;-70
2022/05/01 09:50:43;;;;;;;2.90;1.77;;;;;;;;;;4402263;29;23697;-70
2022/05/01 09:52:54;;;;;;;2.08;1.58;;;;;;;;;;4387232;29;20145;-70
2022/05/01 09:55:05;;;;;;;3.47;1.60;;;;;;;;;;4403871;29;20040;-69
2022/05/01 09:57:23;;;;;;;2.25;1.67;;;;;;;;;;4412633;29;20043;-70
2022/05/01 09:59:46;;;;;;;1.88;1.42;;;;;;;;;;4419165;28;20652;-70
2022/05/01 10:02:04;;;;;;;1.98;1.40;;;;;;;;;;4403606;29;20051;-69
2022/05/01 10:04:15;;;;;;;4.13;1.90;;;;;;;;;;4404316;29;20812;-70
2022/05/01 10:06:28;;;;;;;2.13;1.30;;;;;;;;;;4404734;29;20033;-69
2022/05/01 10:08:39;;;;;;;1.95;1.70;;;;;;;;;;4404022;29;20080;-70
2022/05/01 10:10:57;;;;;;;1.98;1.40;;;;;;;;;;4406757;29;20048;-70
2022/05/01 10:13:08;;;;;;;1.73;1.40;;;;;;;;;;4404509;29;20055;-70
2022/05/01 10:15:20;;;;;;;;;;;;;;;;;;4412680;29;20028;-69
2022/05/01 10:17:32;;;;;;;2.22;1.60;;;;;;;;;;4401810;29;20582;-70
2022/05/01 10:19:43;;;;;;;2.10;1.70;;;;;;;;;;4412030;29;21177;-70
2022/05/01 10:21:59;;;;;;;2.27;1.60;;;;;;;;;;4404327;29;20036;-70
2022/05/01 10:24:10;;;;;;;2.40;1.17;;;;;;;;;;4404128;29;20037;-69
2022/05/01 10:26:27;;;;;;;1.97;1.43;;;;;;;;;;4409537;29;20561;-69
2022/05/01 10:29:14;;;;;;;2.38;1.40;;;;;;;;;;4403930;29;20608;-69
2022/05/01 10:34:51;;;;;;;1.42;1.20;;;;;;;;;;4405356;29;20045;-69
2022/05/01 10:37:43;;;;;;;1.85;1.35;;;;;;;;;;4408927;28;21260;-69
2022/05/01 10:39:53;;;;;;;;;;;;;;;;;;4404778;29;20040;-70
2022/05/01 10:42:04;;;;;;;2.20;1.60;;;;;;;;;;4403875;29;20324;-70
2022/05/01 10:44:34;;;;;;;1.77;1.37;;;;;;;;;;4403196;29;20036;-69
2022/05/01 10:46:52;;;;;;;1.55;1.40;;;;;;;;;;4404761;29;20044;-69
2022/05/01 10:49:05;;;;;;;2.38;1.65;;;;;;;;;;4405396;29;20024;-70
2022/05/01 10:51:28;;;;;;;2.45;1.50;;;;;;;;;;4401904;29;21110;-70
2022/05/01 10:53:38;;;;;;;1.70;1.20;;;;;;;;;;4403610;29;20037;-69
2022/05/01 10:55:48;;;;;;;2.50;1.43;;;;;;;;;;4404757;29;20048;-70
2022/05/01 10:58:18;;;;;;;2.97;1.60;;;;;;;;;;4412206;29;20221;-70
2022/05/01 11:00:28;;;;;;;2.03;1.27;;;;;;;;;;4404421;28;20099;-70
2022/05/01 11:02:41;;;;;;;2.83;1.27;;;;;;;;;;4402782;29;20083;-70
2022/05/01 11:04:53;;;;;;;1.45;1.00;;;;;;;;;;4401818;29;20048;-71
2022/05/01 11:07:05;;;;;;;2.50;1.42;;;;;;;;;;4394710;29;20526;-71
2022/05/01 11:09:19;;;;;;;2.13;1.50;;;;;;;;;;4402501;29;20051;-68
2022/05/01 11:11:30;;;;;;;2.42;1.52;;;;;;;;;;4409218;28;20043;-68
2022/05/01 11:13:41;;;;;;;1.75;1.20;;;;;;;;;;4404416;29;20625;-68
2022/05/01 11:15:52;;;;;;;1.98;1.60;;;;;;;;;;4404079;29;20793;-68
2022/05/01 11:18:02;;;;;;;1.38;1.27;;;;;;;;;;4395795;29;20812;-69
2022/05/01 11:20:19;;;;;;;1.73;1.53;;;;;;;;;;4403795;28;20478;-69
2022/05/01 11:22:30;;;;;;;2.58;1.60;;;;;;;;;;4404988;28;20075;-68
2022/05/01 11:24:42;;;;;;;1.88;1.30;;;;;;;;;;4404563;29;20124;-69
2022/05/01 11:27:11;;;;;;;2.30;1.50;;;;;;;;;;4416595;28;20032;-69
2022/05/01 11:29:21;;;;;;;3.22;1.60;;;;;;;;;;4402728;29;20071;-69
2022/05/01 11:31:35;;;;;;;2.07;1.50;;;;;;;;;;4401707;29;20051;-69
2022/05/01 11:34:17;;;;;;;3.10;1.50;;;;;;;;;;4403366;29;20087;-69
2022/05/01 11:36:50;;;;;;;2.58;1.73;;;;;;;;;;4403342;29;20061;-69
2022/05/01 11:39:00;;;;;;;2.28;1.50;;;;;;;;;;4403706;29;20308;-69
2022/05/01 11:41:11;;;;;;;1.93;1.30;;;;;;;;;;4406166;28;20895;-69
2022/05/01 11:43:22;;;;;;;3.27;1.97;;;;;;;;;;4403293;29;20036;-69
2022/05/01 11:45:32;;;;;;;2.10;1.43;;;;;;;;;;4402224;29;20036;-69
2022/05/01 11:47:47;;;;;;;1.63;1.37;;;;;;;;;;4403500;28;20316;-69
2022/05/01 11:49:58;;;;;;;1.73;1.50;;;;;;;;;;4403165;29;20100;-69
2022/05/01 11:52:10;;;;;;;2.63;1.60;;;;;;;;;;4403812;29;20044;-69
2022/05/01 11:54:22;;;;;;;2.30;1.45;;;;;;;;;;4404963;29;20036;-69
2022/05/01 12:04:33;;;;;;;2.30;1.60;;;;;;;;;;4415949;28;20071;-69
2022/05/01 12:06:43;;;;;;;2.05;1.60;;;;;;;;;;4402393;29;20620;-69
2022/05/01 12:08:53;;;;;;;2.40;1.80;;;;;;;;;;4401993;29;31586;-69
2022/05/01 12:11:04;;;;;;;2.60;1.50;;;;;;;;;;4404846;29;20196;-69
2022/05/01 12:13:24;;;;;;;1.97;1.50;;;;;;;;;;4402626;29;20046;-69
2022/05/01 12:15:35;;;;;;;1.60;1.50;;;;;;;;;;4402435;29;20112;-68
2022/05/01 12:17:46;;;;;;;2.17;1.60;;;;;;;;;;4403479;29;20037;-69
2022/05/01 12:19:58;;;;;;;1.97;1.40;;;;;;;;;;4405066;29;20410;-69
2022/05/01 12:22:12;;;;;;;2.30;1.30;;;;;;;;;;4405244;28;20041;-68
2022/05/01 12:24:22;;;;;;;2.20;1.58;;;;;;;;;;4406543;28;20438;-68
2022/05/01 12:26:35;;;;;;;2.30;1.37;;;;;;;;;;4390067;29;20029;-68
2022/05/01 12:28:47;;;;;;;1.75;1.33;;;;;;;;;;4406889;29;20862;-68
2022/05/01 12:30:58;;;;;;;1.58;1.40;;;;;;;;;;4407132;29;20052;-68
2022/05/01 12:33:24;;;;;;;1.95;1.45;;;;;;;;;;4406088;29;20601;-68
2022/05/01 12:36:01;;;;;;;2.45;1.83;;;;;;;;;;4412418;29;20553;-68
2022/05/01 12:38:12;;;;;;;4.28;1.90;;;;;;;;;;4411509;29;20055;-68
2022/05/01 12:45:21;;;;;;;3.13;1.70;;;;;;;;;;4405932;29;20079;-68
2022/05/01 12:48:02;;;;;;;2.20;1.70;;;;;;;;;;4403592;29;20188;-68
2022/05/01 12:50:18;;;;;;;2.33;1.50;;;;;;;;;;4399319;28;20761;-68
2022/05/01 12:52:33;;;;;;;2.03;1.50;;;;;;;;;;4404908;29;20043;-68
2022/05/01 12:55:14;;;;;;;2.08;1.55;;;;;;;;;;4414007;29;21702;-68
2022/05/01 12:57:34;;;;;;;2.90;1.65;;;;;;;;;;4407129;29;20493;-68
2022/05/01 12:59:54;;;;;;;2.83;1.70;;;;;;;;;;4406159;28;20520;-68
2022/05/01 13:02:06;;;;;;;1.70;1.45;;;;;;;;;;4408080;29;20047;-68
2022/05/01 13:04:27;;;;;;;2.05;1.50;;;;;;;;;;4407492;29;20043;-68
2022/05/01 13:06:39;;;;;;;2.85;1.52;;;;;;;;;;4403983;28;20051;-68
2022/05/01 13:08:52;;;;;;;2.20;1.60;;;;;;;;;;4406264;29;20036;-68
2022/05/01 13:11:12;;;;;;;2.22;1.33;;;;;;;;;;4406576;29;20475;-67
2022/05/01 13:13:22;;;;;;;1.98;1.25;;;;;;;;;;4406360;29;20028;-68
2022/05/01 13:15:37;;;;;;;2.63;1.60;;;;;;;;;;4405432;29;20049;-68
2022/05/01 13:18:01;;;;;;;2.35;1.70;;;;;;;;;;4403884;29;20064;-68
2022/05/01 13:20:12;;;;;;;2.70;1.58;;;;;;;;;;4404398;29;20039;-66
2022/05/01 13:22:22;;;;;;;3.17;1.60;;;;;;;;;;4405276;29;20612;-69
2022/05/01 13:24:34;;;;;;;2.43;1.40;;;;;;;;;;4405498;29;20119;-67
2022/05/01 13:26:45;;;;;;;2.05;1.40;;;;;;;;;;4405451;29;20064;-68
2022/05/01 13:28:58;;;;;;;2.57;1.57;;;;;;;;;;4391195;29;20550;-68
2022/05/01 13:31:08;;;;;;;2.88;1.60;;;;;;;;;;4403682;28;20051;-68
2022/05/01 13:33:19;;;;;;;2.17;1.50;;;;;;;;;;4404454;29;21334;-68
2022/05/01 13:35:29;;;;;;;1.97;1.60;;;;;;;;;;4403797;29;34459;-68
2022/05/01 13:37:39;;;;;;;2.20;1.50;;;;;;;;;;4405387;29;20121;-68
2022/05/01 13:45:08;;;;;;;1.80;1.50;;;;;;;;;;4437801;28;20503;-68
2022/05/01 13:47:19;;;;;;;1.20;1.10;;;;;;;;;;4418768;28;20556;-68
2022/05/01 13:49:30;;;;;;;2.23;1.47;;;;;;;;;;4405889;29;20032;-68
2022/05/01 13:51:41;;;;;;;1.90;1.45;;;;;;;;;;4405311;29;20052;-68